createdAt,value
2017-09-29T00:00:12.159Z,23.50
2017-09-29T00:02:40.435Z,23.57
2017-09-29T00:05:08.744Z,25.23
2017-09-29T00:07:36.282Z,31.37
2017-09-29T00:10:04.557Z,27.00
2017-09-29T00:12:32.019Z,27.00
2017-09-29T00:14:59.728Z,25.07
2017-09-29T00:17:27.202Z,20.33
2017-09-29T00:19:54.734Z,29.00
2017-09-29T00:22:22.242Z,27.10
2017-09-29T00:24:50.521Z,24.50
2017-09-29T00:27:18.886Z,27.33
2017-09-29T00:29:46.375Z,31.47
2017-09-29T00:32:13.864Z,30.00
2017-09-29T00:34:41.580Z,31.70
2017-09-29T00:37:09.942Z,32.07
2017-09-29T00:39:37.432Z,26.33
2017-09-29T00:42:05.344Z,27.17
2017-09-29T00:44:32.809Z,30.03
2017-09-29T00:47:00.736Z,27.80
2017-09-29T00:49:28.205Z,26.50
2017-09-29T00:51:55.858Z,24.57
2017-09-29T00:54:23.350Z,30.47
2017-09-29T00:56:50.853Z,28.00
2017-09-29T00:59:18.581Z,29.80
2017-09-29T01:01:46.088Z,31.50
2017-09-29T01:04:13.569Z,32.57
2017-09-29T01:06:41.048Z,34.70
2017-09-29T01:09:08.517Z,32.10
2017-09-29T01:11:36.213Z,35.20
2017-09-29T01:14:03.780Z,34.67
2017-09-29T01:16:31.265Z,41.10
2017-09-29T01:18:58.827Z,39.30
2017-09-29T01:21:26.386Z,31.90
2017-09-29T01:23:54.104Z,40.30
2017-09-29T01:26:21.589Z,41.70
2017-09-29T01:28:49.077Z,39.67
2017-09-29T01:31:16.597Z,50.10
2017-09-29T01:33:44.560Z,36.53
2017-09-29T01:36:12.145Z,49.03
2017-09-29T01:38:39.751Z,33.13
2017-09-29T01:41:08.013Z,41.27
2017-09-29T01:43:35.888Z,47.77
2017-09-29T01:46:04.146Z,38.90
2017-09-29T01:48:31.627Z,43.37
2017-09-29T01:51:00.088Z,39.47
2017-09-29T01:53:27.573Z,34.33
2017-09-29T01:55:55.067Z,34.57
2017-09-29T01:58:22.568Z,36.70
2017-09-29T02:00:50.808Z,33.70
2017-09-29T02:03:18.367Z,34.03
2017-09-29T02:05:45.838Z,39.70
2017-09-29T02:08:13.318Z,37.70
2017-09-29T02:10:40.894Z,42.67
2017-09-29T02:13:09.156Z,45.17
2017-09-29T02:15:36.873Z,49.13
2017-09-29T02:18:04.401Z,39.30
2017-09-29T02:20:31.886Z,42.33
2017-09-29T02:22:59.518Z,41.93
2017-09-29T02:25:27.047Z,45.80
2017-09-29T02:27:55.245Z,44.20
2017-09-29T02:30:23.478Z,40.00
2017-09-29T02:32:50.956Z,36.43
2017-09-29T02:35:18.441Z,41.30
2017-09-29T02:37:46.018Z,38.33
2017-09-29T02:40:13.638Z,37.93
2017-09-29T02:42:41.856Z,36.40
2017-09-29T02:45:09.386Z,37.20
2017-09-29T02:47:37.640Z,36.33
2017-09-29T02:50:05.107Z,34.50
2017-09-29T02:52:33.593Z,34.37
2017-09-29T02:55:01.829Z,38.90
2017-09-29T02:57:33.744Z,43.13
2017-09-29T03:00:05.549Z,40.50
2017-09-29T03:02:34.948Z,42.40
2017-09-29T03:05:04.771Z,49.00
2017-09-29T03:07:32.240Z,36.40
2017-09-29T03:09:59.881Z,38.30
2017-09-29T03:12:27.430Z,36.40
2017-09-29T03:14:55.018Z,41.00
2017-09-29T03:17:22.632Z,35.23
2017-09-29T03:19:50.161Z,37.97
2017-09-29T03:22:18.408Z,48.70
2017-09-29T03:24:45.990Z,39.13
2017-09-29T03:27:14.473Z,39.53
2017-09-29T03:29:42.738Z,41.30
2017-09-29T03:32:11.013Z,44.23
2017-09-29T03:34:38.490Z,46.37
2017-09-29T03:37:06.856Z,44.00
2017-09-29T03:39:35.339Z,49.97
2017-09-29T03:42:03.585Z,47.97
2017-09-29T03:44:31.045Z,60.97
2017-09-29T03:46:58.542Z,49.70
2017-09-29T03:49:26.120Z,53.67
2017-09-29T03:51:54.958Z,46.60
2017-09-29T03:54:24.905Z,52.33
2017-09-29T03:56:54.653Z,47.00
2017-09-29T03:59:23.475Z,55.13
2017-09-29T04:01:51.891Z,53.17
2017-09-29T04:04:19.370Z,57.80
2017-09-29T04:06:46.839Z,61.43
2017-09-29T04:09:14.529Z,51.10
2017-09-29T04:11:42.193Z,50.13
2017-09-29T04:14:09.649Z,53.83
2017-09-29T04:16:37.208Z,54.43
2017-09-29T04:19:04.661Z,62.83
2017-09-29T04:21:32.175Z,58.83
2017-09-29T04:23:59.647Z,63.90
2017-09-29T04:26:27.124Z,56.53
2017-09-29T04:28:54.618Z,69.27
2017-09-29T04:31:22.956Z,56.93
2017-09-29T04:33:50.637Z,57.07
2017-09-29T04:36:18.781Z,49.20
2017-09-29T04:38:46.269Z,46.07
2017-09-29T04:41:13.747Z,47.13
2017-09-29T04:43:42.162Z,44.70
2017-09-29T04:46:10.069Z,48.77
2017-09-29T04:48:37.773Z,50.73
2017-09-29T04:51:06.458Z,49.60
2017-09-29T04:53:33.976Z,50.37
2017-09-29T04:56:01.690Z,49.07
2017-09-29T04:58:29.167Z,48.07
2017-09-29T05:00:56.647Z,54.20
2017-09-29T05:03:24.101Z,51.23
2017-09-29T05:05:51.573Z,54.90
2017-09-29T05:08:19.032Z,58.73
2017-09-29T05:10:46.653Z,50.20
2017-09-29T05:13:14.147Z,47.73
2017-09-29T05:15:42.612Z,51.23
2017-09-29T05:18:10.157Z,55.80
2017-09-29T05:20:37.924Z,50.37
2017-09-29T05:23:05.450Z,47.77
2017-09-29T05:25:32.991Z,45.80
2017-09-29T05:28:01.401Z,42.87
2017-09-29T05:30:28.927Z,52.83
2017-09-29T05:32:57.203Z,46.53
2017-09-29T05:35:25.481Z,49.33
2017-09-29T05:37:54.519Z,55.97
2017-09-29T05:40:21.980Z,41.90
2017-09-29T05:42:49.617Z,44.37
2017-09-29T05:45:17.066Z,45.37
2017-09-29T05:47:44.717Z,56.00
2017-09-29T05:50:12.222Z,60.27
2017-09-29T05:52:40.344Z,41.10
2017-09-29T05:55:08.622Z,43.13
2017-09-29T05:57:36.878Z,40.40
2017-09-29T06:00:04.637Z,36.93
2017-09-29T06:02:32.905Z,37.43
2017-09-29T06:05:00.378Z,47.47
2017-09-29T06:07:28.692Z,34.07
2017-09-29T06:09:56.157Z,31.23
2017-09-29T06:12:23.899Z,25.90
2017-09-29T06:14:51.397Z,26.53
2017-09-29T06:17:18.869Z,28.50
2017-09-29T06:19:46.387Z,29.50
2017-09-29T06:22:13.914Z,27.50
2017-09-29T06:24:42.738Z,22.43
2017-09-29T06:27:10.186Z,20.30
2017-09-29T06:29:37.706Z,23.23
2017-09-29T06:32:06.689Z,18.17
2017-09-29T06:34:34.233Z,32.57
2017-09-29T06:37:01.739Z,30.57
2017-09-29T06:39:30.041Z,27.13
2017-09-29T06:41:57.513Z,20.27
2017-09-29T06:44:25.262Z,19.57
2017-09-29T06:46:52.779Z,28.70
2017-09-29T06:49:21.317Z,19.40
2017-09-29T06:51:48.810Z,20.60
2017-09-29T06:54:16.306Z,14.20
2017-09-29T06:56:43.882Z,19.33
2017-09-29T06:59:11.354Z,13.40
2017-09-29T07:01:38.847Z,16.97
2017-09-29T07:04:07.110Z,23.00
2017-09-29T07:06:35.352Z,15.20
2017-09-29T07:09:03.099Z,10.50
2017-09-29T07:11:30.596Z,15.40
2017-09-29T07:13:58.121Z,13.60
2017-09-29T07:16:25.645Z,22.93
2017-09-29T07:18:53.946Z,9.97
2017-09-29T07:21:21.447Z,11.53
2017-09-29T07:23:48.964Z,19.23
2017-09-29T07:26:22.554Z,9.10
2017-09-29T07:28:52.999Z,13.03
2017-09-29T07:31:23.175Z,12.90
2017-09-29T07:33:50.638Z,13.77
2017-09-29T07:36:19.304Z,12.00
2017-09-29T07:38:46.827Z,10.33
2017-09-29T07:41:14.299Z,13.93
2017-09-29T07:43:42.067Z,8.73
2017-09-29T07:46:09.548Z,13.17
2017-09-29T07:48:37.025Z,11.70
2017-09-29T07:51:05.274Z,12.67
2017-09-29T07:53:32.765Z,16.30
2017-09-29T07:56:00.646Z,12.00
2017-09-29T07:58:28.132Z,13.30
2017-09-29T08:00:55.618Z,10.50
2017-09-29T08:03:23.588Z,9.27
2017-09-29T08:05:51.072Z,12.50
2017-09-29T08:08:18.638Z,14.33
2017-09-29T08:10:46.129Z,13.17
2017-09-29T08:13:13.657Z,18.13
2017-09-29T08:15:41.191Z,10.00
2017-09-29T08:18:09.509Z,12.07
2017-09-29T08:20:37.318Z,12.10
2017-09-29T08:23:04.786Z,14.10
2017-09-29T08:25:33.795Z,15.27
2017-09-29T08:28:02.069Z,12.70
2017-09-29T08:30:30.322Z,16.63
2017-09-29T08:32:58.343Z,11.70
2017-09-29T08:35:26.040Z,10.90
2017-09-29T08:37:53.557Z,11.37
2017-09-29T08:40:21.151Z,16.87
2017-09-29T08:42:48.702Z,10.97
2017-09-29T08:45:16.634Z,9.30
2017-09-29T08:47:44.423Z,15.33
2017-09-29T08:50:11.901Z,14.53
2017-09-29T08:52:39.385Z,8.63
2017-09-29T08:55:06.944Z,8.20
2017-09-29T08:57:35.209Z,15.20
2017-09-29T09:00:02.797Z,10.07
2017-09-29T09:02:30.271Z,10.90
2017-09-29T09:04:57.758Z,7.83
2017-09-29T09:07:25.263Z,13.60
2017-09-29T09:09:53.842Z,22.90
2017-09-29T09:12:22.095Z,6.37
2017-09-29T09:14:49.622Z,8.93
2017-09-29T09:17:17.137Z,8.90
2017-09-29T09:19:45.450Z,6.87
2017-09-29T09:22:13.319Z,13.00
2017-09-29T09:24:41.460Z,5.33
2017-09-29T09:27:09.707Z,8.40
2017-09-29T09:29:37.237Z,8.17
2017-09-29T09:32:04.759Z,6.17
2017-09-29T09:34:32.265Z,9.20
2017-09-29T09:36:59.769Z,5.53
2017-09-29T09:39:28.082Z,11.13
2017-09-29T09:41:55.599Z,6.57
2017-09-29T09:44:23.982Z,10.90
2017-09-29T09:46:52.857Z,4.93
2017-09-29T09:49:20.389Z,4.23
2017-09-29T09:51:47.868Z,7.17
2017-09-29T09:54:15.352Z,4.10
2017-09-29T09:56:43.749Z,8.83
2017-09-29T09:59:11.384Z,8.10
2017-09-29T10:01:39.633Z,4.43
2017-09-29T10:04:07.140Z,9.97
2017-09-29T10:06:34.682Z,3.60
2017-09-29T10:09:02.922Z,4.67
2017-09-29T10:11:30.446Z,7.10
2017-09-29T10:13:57.942Z,9.70
2017-09-29T10:16:25.467Z,8.40
2017-09-29T10:18:52.954Z,13.20
2017-09-29T10:21:20.494Z,5.30
2017-09-29T10:23:48.245Z,5.17
2017-09-29T10:26:15.727Z,3.57
2017-09-29T10:28:43.244Z,5.70
2017-09-29T10:31:10.824Z,5.93
2017-09-29T10:33:38.654Z,7.30
2017-09-29T10:36:06.414Z,6.40
2017-09-29T10:38:34.677Z,7.83
2017-09-29T10:41:02.946Z,3.20
2017-09-29T10:43:30.468Z,6.77
2017-09-29T10:45:57.976Z,12.07
2017-09-29T10:48:26.438Z,7.20
2017-09-29T10:50:53.994Z,11.40
2017-09-29T10:53:21.506Z,7.73
2017-09-29T10:55:49.082Z,5.93
2017-09-29T10:58:17.569Z,4.30
2017-09-29T11:00:45.752Z,5.43
2017-09-29T11:03:13.253Z,5.53
2017-09-29T11:05:41.585Z,8.40
2017-09-29T11:08:09.065Z,4.13
2017-09-29T11:10:36.558Z,6.03
2017-09-29T11:13:04.229Z,8.43
2017-09-29T11:15:31.750Z,3.97
2017-09-29T11:18:00.078Z,6.83
2017-09-29T11:20:27.601Z,10.17
2017-09-29T11:22:55.865Z,7.67
2017-09-29T11:25:23.510Z,14.13
2017-09-29T11:27:50.957Z,3.63
2017-09-29T11:30:18.486Z,4.93
2017-09-29T11:32:46.010Z,5.77
2017-09-29T11:35:14.251Z,4.33
2017-09-29T11:37:41.870Z,6.63
2017-09-29T11:40:09.386Z,3.70
2017-09-29T11:42:38.400Z,6.30
2017-09-29T11:45:06.659Z,4.60
2017-09-29T11:47:34.989Z,8.90
2017-09-29T11:50:02.492Z,5.70
2017-09-29T11:52:31.015Z,5.53
2017-09-29T11:54:58.613Z,7.70
2017-09-29T11:57:26.870Z,3.00
2017-09-29T11:59:54.361Z,7.83
2017-09-29T12:02:22.151Z,4.43
2017-09-29T12:04:49.686Z,7.33
2017-09-29T12:07:17.153Z,6.67
2017-09-29T12:09:45.417Z,4.83
2017-09-29T12:12:12.915Z,3.50
2017-09-29T12:14:40.433Z,3.27
2017-09-29T12:17:07.910Z,9.07
2017-09-29T12:19:35.443Z,5.30
2017-09-29T12:22:02.962Z,7.13
2017-09-29T12:24:30.477Z,8.00
2017-09-29T12:26:59.989Z,3.20
2017-09-29T12:29:28.287Z,11.40
2017-09-29T12:31:55.814Z,4.50
2017-09-29T12:34:24.196Z,8.43
2017-09-29T12:36:53.150Z,9.67
2017-09-29T12:39:21.818Z,12.17
2017-09-29T12:41:49.305Z,6.90
2017-09-29T12:44:16.764Z,15.23
2017-09-29T12:46:44.342Z,6.30
2017-09-29T12:49:11.907Z,6.60
2017-09-29T12:51:40.594Z,7.60
2017-09-29T12:54:08.851Z,7.80
2017-09-29T12:56:36.334Z,7.20
2017-09-29T12:59:03.886Z,6.57
2017-09-29T13:01:32.120Z,14.73
2017-09-29T13:03:59.599Z,6.63
2017-09-29T13:06:27.076Z,12.27
2017-09-29T13:08:55.313Z,7.23
2017-09-29T13:11:22.886Z,6.10
2017-09-29T13:13:50.365Z,13.23
2017-09-29T13:16:18.635Z,9.40
2017-09-29T13:18:46.893Z,12.23
2017-09-29T13:21:14.518Z,5.20
2017-09-29T13:23:42.024Z,8.03
2017-09-29T13:26:09.514Z,8.10
2017-09-29T13:28:37.015Z,3.57
2017-09-29T13:31:04.487Z,9.83
2017-09-29T13:33:32.017Z,5.63
2017-09-29T13:35:59.516Z,5.43
2017-09-29T13:38:27.798Z,11.10
2017-09-29T13:40:56.067Z,9.80
2017-09-29T13:43:23.540Z,7.83
2017-09-29T13:45:52.000Z,13.30
2017-09-29T13:48:20.086Z,7.17
2017-09-29T13:50:48.367Z,5.47
2017-09-29T13:53:16.620Z,6.40
2017-09-29T13:55:44.172Z,5.40
2017-09-29T13:58:11.867Z,8.93
2017-09-29T14:00:40.124Z,10.33
2017-09-29T14:03:07.629Z,11.90
2017-09-29T14:05:35.113Z,10.60
2017-09-29T14:08:02.659Z,6.10
2017-09-29T14:10:30.384Z,16.53
2017-09-29T14:12:57.874Z,7.93
2017-09-29T14:15:25.369Z,7.20
2017-09-29T14:17:52.918Z,15.00
2017-09-29T14:20:20.457Z,6.60
2017-09-29T14:22:48.003Z,4.97
2017-09-29T14:25:15.474Z,6.00
2017-09-29T14:27:43.107Z,6.27
2017-09-29T14:30:10.655Z,20.40
2017-09-29T14:32:39.007Z,6.70
2017-09-29T14:35:06.610Z,9.63
2017-09-29T14:37:34.275Z,9.87
2017-09-29T14:40:01.744Z,8.03
2017-09-29T14:42:29.267Z,8.97
2017-09-29T14:44:56.791Z,13.67
2017-09-29T14:47:24.409Z,9.83
2017-09-29T14:49:52.077Z,7.33
2017-09-29T14:52:19.555Z,10.50
2017-09-29T14:54:47.085Z,6.07
2017-09-29T14:57:14.570Z,6.40
2017-09-29T14:59:42.074Z,3.83
2017-09-29T15:02:10.362Z,5.60
2017-09-29T15:04:39.100Z,3.90
2017-09-29T15:07:06.709Z,10.73
2017-09-29T15:09:34.230Z,9.90
2017-09-29T15:12:01.949Z,8.60
2017-09-29T15:14:29.526Z,13.33
2017-09-29T15:16:56.996Z,5.40
2017-09-29T15:19:24.865Z,8.60
2017-09-29T15:21:52.705Z,12.10
2017-09-29T15:24:20.256Z,13.37
2017-09-29T15:26:47.786Z,9.27
2017-09-29T15:29:16.625Z,10.77
2017-09-29T15:31:44.404Z,11.33
2017-09-29T15:34:11.902Z,18.57
2017-09-29T15:36:40.138Z,9.20
2017-09-29T15:39:07.622Z,10.77
2017-09-29T15:41:35.846Z,8.20
2017-09-29T15:44:03.518Z,19.87
2017-09-29T15:46:31.001Z,10.90
2017-09-29T15:48:58.536Z,8.27
2017-09-29T15:51:26.014Z,10.00
2017-09-29T15:53:54.283Z,13.10
2017-09-29T15:56:21.889Z,8.40
2017-09-29T15:58:49.368Z,22.57
2017-09-29T16:01:17.174Z,12.20
2017-09-29T16:03:45.536Z,14.37
2017-09-29T16:06:12.982Z,11.20
2017-09-29T16:08:41.354Z,20.87
2017-09-29T16:11:08.833Z,17.17
2017-09-29T16:13:36.349Z,6.27
2017-09-29T16:16:03.903Z,12.40
2017-09-29T16:18:32.634Z,8.17
2017-09-29T16:21:00.153Z,11.13
2017-09-29T16:23:27.648Z,11.93
2017-09-29T16:25:55.193Z,13.60
2017-09-29T16:28:22.772Z,17.90
2017-09-29T16:30:50.299Z,10.30
2017-09-29T16:33:17.795Z,11.27
2017-09-29T16:35:45.389Z,8.27
2017-09-29T16:38:13.709Z,20.10
2017-09-29T16:40:41.216Z,7.63
2017-09-29T16:43:09.526Z,13.63
2017-09-29T16:45:37.061Z,12.57
2017-09-29T16:48:05.460Z,11.73
2017-09-29T16:50:32.989Z,6.60
2017-09-29T16:53:01.454Z,11.20
2017-09-29T16:55:29.124Z,7.07
2017-09-29T16:57:56.796Z,14.43
2017-09-29T17:00:25.356Z,11.00
2017-09-29T17:02:53.663Z,14.83
2017-09-29T17:05:30.270Z,17.50
2017-09-29T17:07:57.815Z,12.80
2017-09-29T17:10:25.347Z,9.50
2017-09-29T17:12:53.596Z,17.17
2017-09-29T17:15:21.117Z,11.30
2017-09-29T17:17:48.820Z,8.90
2017-09-29T17:20:17.118Z,11.83
2017-09-29T17:22:45.395Z,12.20
2017-09-29T17:25:12.904Z,10.07
2017-09-29T17:27:41.501Z,8.53
2017-09-29T17:30:09.079Z,11.23
2017-09-29T17:32:37.346Z,22.63
2017-09-29T17:35:04.904Z,33.60
2017-09-29T17:37:32.423Z,21.60
2017-09-29T17:40:00.002Z,24.87
2017-09-29T17:42:27.845Z,8.43
2017-09-29T17:44:55.333Z,11.67
2017-09-29T17:47:22.822Z,11.37
2017-09-29T17:49:51.238Z,20.23
2017-09-29T17:52:18.759Z,15.30
2017-09-29T17:54:47.013Z,19.10
2017-09-29T17:57:15.078Z,8.50
2017-09-29T17:59:42.546Z,15.03
2017-09-29T18:02:10.794Z,12.97
2017-09-29T18:04:38.680Z,15.83
2017-09-29T18:07:06.222Z,11.80
2017-09-29T18:09:33.830Z,38.23
2017-09-29T18:12:02.234Z,18.97
2017-09-29T18:14:29.730Z,21.40
2017-09-29T18:16:57.231Z,16.10
2017-09-29T18:19:24.715Z,14.23
2017-09-29T18:21:52.304Z,20.00
2017-09-29T18:24:19.822Z,15.90
2017-09-29T18:26:47.337Z,13.30
2017-09-29T18:29:14.808Z,10.60
2017-09-29T18:31:43.049Z,10.03
2017-09-29T18:34:10.785Z,12.20
2017-09-29T18:36:38.320Z,13.13
2017-09-29T18:39:06.566Z,14.83
2017-09-29T18:41:35.006Z,13.53
2017-09-29T18:44:05.468Z,17.23
2017-09-29T18:46:39.032Z,12.13
2017-09-29T18:49:06.506Z,16.70
2017-09-29T18:51:34.173Z,11.73
2017-09-29T18:54:01.726Z,15.97
2017-09-29T18:56:29.312Z,13.13
2017-09-29T18:58:57.030Z,13.13
2017-09-29T19:01:24.573Z,19.90
2017-09-29T19:03:52.051Z,15.60
2017-09-29T19:06:19.556Z,18.80
2017-09-29T19:08:47.112Z,20.63
2017-09-29T19:11:14.944Z,17.80
2017-09-29T19:13:42.455Z,20.30
2017-09-29T19:16:09.965Z,14.87
2017-09-29T19:18:37.507Z,15.67
2017-09-29T19:21:05.026Z,22.57
2017-09-29T19:23:33.358Z,14.33
2017-09-29T19:26:00.941Z,10.43
2017-09-29T19:28:29.217Z,19.33
2017-09-29T19:30:57.824Z,11.47
2017-09-29T19:33:26.163Z,21.83
2017-09-29T19:35:53.683Z,15.37
2017-09-29T19:38:21.261Z,13.60
2017-09-29T19:40:48.785Z,15.07
2017-09-29T19:43:16.551Z,14.90
2017-09-29T19:45:44.135Z,15.63
2017-09-29T19:48:11.630Z,18.30
2017-09-29T19:50:39.998Z,22.80
2017-09-29T19:53:08.256Z,11.90
2017-09-29T19:55:36.830Z,15.77
2017-09-29T19:58:04.603Z,18.00
2017-09-29T20:00:33.138Z,18.43
2017-09-29T20:03:01.628Z,11.80
2017-09-29T20:05:30.069Z,20.73
2017-09-29T20:07:58.072Z,15.33
2017-09-29T20:10:26.353Z,15.33
2017-09-29T20:12:54.117Z,15.67
2017-09-29T20:15:21.838Z,13.33
2017-09-29T20:17:49.562Z,25.50
2017-09-29T20:20:18.408Z,13.03
2017-09-29T20:22:46.823Z,11.73
2017-09-29T20:25:14.338Z,15.57
2017-09-29T20:27:41.826Z,20.27
2017-09-29T20:30:09.524Z,14.37
2017-09-29T20:32:37.224Z,25.97
2017-09-29T20:35:04.955Z,12.20
2017-09-29T20:37:32.439Z,21.70
2017-09-29T20:39:59.957Z,10.30
2017-09-29T20:42:27.483Z,22.93
2017-09-29T20:44:55.998Z,14.70
2017-09-29T20:47:23.488Z,17.30
2017-09-29T20:49:51.053Z,24.23
2017-09-29T20:52:18.528Z,14.07
2017-09-29T20:54:46.762Z,13.40
2017-09-29T20:57:14.585Z,20.17
2017-09-29T20:59:42.053Z,13.17
2017-09-29T21:02:09.925Z,20.70
2017-09-29T21:04:37.407Z,19.57
2017-09-29T21:07:05.278Z,13.83
2017-09-29T21:09:32.993Z,17.07
2017-09-29T21:12:01.218Z,16.27
2017-09-29T21:14:29.588Z,16.90
2017-09-29T21:16:57.102Z,10.90
2017-09-29T21:19:25.457Z,12.67
2017-09-29T21:21:52.944Z,24.60
2017-09-29T21:24:20.425Z,20.37
2017-09-29T21:26:48.017Z,13.73
2017-09-29T21:29:15.500Z,16.47
2017-09-29T21:31:43.768Z,11.50
2017-09-29T21:34:11.254Z,14.03
2017-09-29T21:36:38.755Z,12.93
2017-09-29T21:39:06.556Z,21.73
2017-09-29T21:41:34.073Z,17.00
2017-09-29T21:44:01.632Z,12.80
2017-09-29T21:46:29.372Z,18.63
2017-09-29T21:48:57.167Z,20.40
2017-09-29T21:51:24.858Z,15.83
2017-09-29T21:53:52.318Z,14.37
2017-09-29T21:56:19.812Z,31.30
2017-09-29T21:58:47.336Z,20.23
2017-09-29T22:01:14.792Z,14.30
2017-09-29T22:03:43.474Z,16.37
2017-09-29T22:06:11.109Z,16.17
2017-09-29T22:08:38.702Z,17.93
2017-09-29T22:11:07.125Z,16.70
2017-09-29T22:13:34.603Z,28.63
2017-09-29T22:16:02.301Z,24.20
2017-09-29T22:18:31.260Z,16.37
2017-09-29T22:20:58.743Z,34.77
2017-09-29T22:23:26.272Z,16.90
2017-09-29T22:25:53.759Z,19.83
2017-09-29T22:28:22.158Z,20.20
2017-09-29T22:30:50.531Z,16.67
2017-09-29T22:33:18.851Z,14.43
2017-09-29T22:35:46.347Z,19.60
2017-09-29T22:38:13.842Z,16.73
2017-09-29T22:40:41.697Z,14.67
2017-09-29T22:43:09.965Z,12.70
2017-09-29T22:45:38.209Z,18.70
2017-09-29T22:48:05.697Z,12.50
2017-09-29T22:50:34.100Z,18.77
2017-09-29T22:53:02.380Z,11.80
2017-09-29T22:55:29.845Z,14.63
2017-09-29T22:57:57.359Z,9.73
2017-09-29T23:00:25.757Z,29.73
2017-09-29T23:02:53.990Z,191.30
2017-09-29T23:05:21.714Z,18.70
2017-09-29T23:07:49.300Z,28.30
2017-09-29T23:10:16.871Z,11.03
2017-09-29T23:12:44.349Z,16.87
2017-09-29T23:15:12.658Z,24.50
2017-09-29T23:17:40.176Z,14.73
2017-09-29T23:20:07.658Z,17.80
2017-09-29T23:22:35.169Z,18.33
2017-09-29T23:25:02.737Z,19.53
2017-09-29T23:27:30.218Z,16.30
2017-09-29T23:29:58.702Z,22.73
2017-09-29T23:32:26.978Z,11.80
2017-09-29T23:34:55.233Z,21.83
2017-09-29T23:37:22.729Z,12.80
2017-09-29T23:39:51.713Z,15.30
2017-09-29T23:42:19.991Z,27.13
2017-09-29T23:44:48.256Z,15.93
2017-09-29T23:47:16.540Z,19.37
2017-09-29T23:49:44.887Z,15.43
2017-09-29T23:52:12.378Z,19.97
2017-09-29T23:54:40.903Z,14.43
2017-09-29T23:57:08.438Z,10.63
2017-09-29T23:59:35.987Z,13.47
